sensor_id;sensor_type;location;lat;lon;timestamp;P1;durP1;ratioP1;P2;durP2;ratioP2
6121;SDS011;3091;51.506;7.672;2023-07-29T00:02:02;26.87;;;25.20;;
6121;SDS011;3091;51.506;7.672;2023-07-29T00:04:29;24.97;;;23.47;;
6121;SDS011;3091;51.506;7.672;2023-07-29T00:06:55;26.30;;;24.70;;
6121;SDS011;3091;51.506;7.672;2023-07-29T00:09:21;26.27;;;24.67;;
6121;SDS011;3091;51.506;7.672;2023-07-29T00:11:47;26.87;;;25.27;;
6121;SDS011;3091;51.506;7.672;2023-07-29T00:14:13;27.33;;;25.73;;
6121;SDS011;3091;51.506;7.672;2023-07-29T00:16:39;26.63;;;24.93;;
6121;SDS011;3091;51.506;7.672;2023-07-29T00:19:06;24.80;;;23.30;;
6121;SDS011;3091;51.506;7.672;2023-07-29T00:21:32;24.40;;;22.90;;
6121;SDS011;3091;51.506;7.672;2023-07-29T00:23:58;24.47;;;22.97;;
6121;SDS011;3091;51.506;7.672;2023-07-29T00:26:26;24.40;;;22.90;;
6121;SDS011;3091;51.506;7.672;2023-07-29T00:28:53;25.30;;;23.57;;
6121;SDS011;3091;51.506;7.672;2023-07-29T00:31:20;23.70;;;22.40;;
6121;SDS011;3091;51.506;7.672;2023-07-29T00:33:48;23.30;;;22.00;;
6121;SDS011;3091;51.506;7.672;2023-07-29T00:36:14;24.50;;;23.10;;
6121;SDS011;3091;51.506;7.672;2023-07-29T00:38:40;24.20;;;22.80;;
6121;SDS011;3091;51.506;7.672;2023-07-29T00:41:06;24.70;;;23.30;;
6121;SDS011;3091;51.506;7.672;2023-07-29T00:43:32;24.60;;;23.20;;
6121;SDS011;3091;51.506;7.672;2023-07-29T00:45:59;23.10;;;21.70;;
6121;SDS011;3091;51.506;7.672;2023-07-29T00:48:25;23.33;;;21.93;;
6121;SDS011;3091;51.506;7.672;2023-07-29T00:50:51;23.13;;;21.73;;
6121;SDS011;3091;51.506;7.672;2023-07-29T00:53:18;23.10;;;21.70;;
6121;SDS011;3091;51.506;7.672;2023-07-29T00:55:44;22.83;;;21.43;;
6121;SDS011;3091;51.506;7.672;2023-07-29T00:58:10;23.20;;;21.80;;
6121;SDS011;3091;51.506;7.672;2023-07-29T01:00:38;23.20;;;21.80;;
6121;SDS011;3091;51.506;7.672;2023-07-29T01:03:04;23.10;;;21.70;;
6121;SDS011;3091;51.506;7.672;2023-07-29T01:05:32;22.70;;;21.40;;
6121;SDS011;3091;51.506;7.672;2023-07-29T01:15:58;24.07;;;22.70;;
6121;SDS011;3091;51.506;7.672;2023-07-29T01:18:29;22.80;;;21.50;;
6121;SDS011;3091;51.506;7.672;2023-07-29T01:20:59;22.87;;;21.57;;
6121;SDS011;3091;51.506;7.672;2023-07-29T01:23:30;24.20;;;22.80;;
6121;SDS011;3091;51.506;7.672;2023-07-29T01:25:56;23.33;;;22.03;;
6121;SDS011;3091;51.506;7.672;2023-07-29T01:28:22;22.37;;;21.07;;
6121;SDS011;3091;51.506;7.672;2023-07-29T01:30:49;21.60;;;20.30;;
6121;SDS011;3091;51.506;7.672;2023-07-29T01:33:29;21.17;;;19.87;;
6121;SDS011;3091;51.506;7.672;2023-07-29T01:36:03;21.90;;;20.50;;
6121;SDS011;3091;51.506;7.672;2023-07-29T01:38:30;23.07;;;21.77;;
6121;SDS011;3091;51.506;7.672;2023-07-29T01:41:03;21.90;;;20.70;;
6121;SDS011;3091;51.506;7.672;2023-07-29T01:43:29;22.97;;;21.57;;
6121;SDS011;3091;51.506;7.672;2023-07-29T01:45:55;21.97;;;20.77;;
6121;SDS011;3091;51.506;7.672;2023-07-29T01:48:21;22.23;;;20.83;;
6121;SDS011;3091;51.506;7.672;2023-07-29T01:50:48;22.50;;;21.20;;
6121;SDS011;3091;51.506;7.672;2023-07-29T01:53:14;22.10;;;20.80;;
6121;SDS011;3091;51.506;7.672;2023-07-29T01:55:40;21.70;;;20.40;;
6121;SDS011;3091;51.506;7.672;2023-07-29T01:58:06;21.60;;;20.30;;
6121;SDS011;3091;51.506;7.672;2023-07-29T02:00:32;21.40;;;20.10;;
6121;SDS011;3091;51.506;7.672;2023-07-29T02:02:58;21.07;;;19.80;;
6121;SDS011;3091;51.506;7.672;2023-07-29T02:05:27;21.10;;;19.90;;
6121;SDS011;3091;51.506;7.672;2023-07-29T02:07:53;21.27;;;20.07;;
6121;SDS011;3091;51.506;7.672;2023-07-29T02:10:19;21.60;;;20.30;;
6121;SDS011;3091;51.506;7.672;2023-07-29T02:12:45;21.50;;;20.20;;
6121;SDS011;3091;51.506;7.672;2023-07-29T02:15:11;21.40;;;20.10;;
6121;SDS011;3091;51.506;7.672;2023-07-29T02:17:37;22.10;;;20.80;;
6121;SDS011;3091;51.506;7.672;2023-07-29T02:20:03;21.50;;;20.20;;
6121;SDS011;3091;51.506;7.672;2023-07-29T02:22:32;21.20;;;20.00;;
6121;SDS011;3091;51.506;7.672;2023-07-29T02:24:58;21.40;;;20.10;;
6121;SDS011;3091;51.506;7.672;2023-07-29T02:27:24;21.67;;;20.37;;
6121;SDS011;3091;51.506;7.672;2023-07-29T02:29:52;20.83;;;19.63;;
6121;SDS011;3091;51.506;7.672;2023-07-29T02:32:18;20.67;;;19.47;;
6121;SDS011;3091;51.506;7.672;2023-07-29T02:34:44;20.83;;;19.63;;
6121;SDS011;3091;51.506;7.672;2023-07-29T02:37:10;21.70;;;20.40;;
6121;SDS011;3091;51.506;7.672;2023-07-29T02:39:36;22.10;;;20.80;;
6121;SDS011;3091;51.506;7.672;2023-07-29T02:42:02;21.80;;;20.50;;
6121;SDS011;3091;51.506;7.672;2023-07-29T02:44:28;21.30;;;20.10;;
6121;SDS011;3091;51.506;7.672;2023-07-29T02:46:54;21.80;;;20.50;;
6121;SDS011;3091;51.506;7.672;2023-07-29T02:49:21;22.00;;;20.70;;
6121;SDS011;3091;51.506;7.672;2023-07-29T02:51:48;22.50;;;21.20;;
6121;SDS011;3091;51.506;7.672;2023-07-29T02:54:14;21.83;;;20.50;;
6121;SDS011;3091;51.506;7.672;2023-07-29T02:56:40;22.53;;;21.13;;
6121;SDS011;3091;51.506;7.672;2023-07-29T02:59:08;21.63;;;20.33;;
6121;SDS011;3091;51.506;7.672;2023-07-29T03:01:34;21.43;;;20.17;;
6121;SDS011;3091;51.506;7.672;2023-07-29T03:04:00;20.83;;;19.63;;
6121;SDS011;3091;51.506;7.672;2023-07-29T03:06:26;20.77;;;19.57;;
6121;SDS011;3091;51.506;7.672;2023-07-29T03:08:52;21.30;;;20.10;;
6121;SDS011;3091;51.506;7.672;2023-07-29T03:11:18;21.23;;;20.03;;
6121;SDS011;3091;51.506;7.672;2023-07-29T03:13:44;21.00;;;19.80;;
6121;SDS011;3091;51.506;7.672;2023-07-29T03:16:13;21.40;;;20.20;;
6121;SDS011;3091;51.506;7.672;2023-07-29T03:18:40;21.80;;;20.50;;
6121;SDS011;3091;51.506;7.672;2023-07-29T03:21:06;21.40;;;20.20;;
6121;SDS011;3091;51.506;7.672;2023-07-29T03:23:32;21.30;;;20.10;;
6121;SDS011;3091;51.506;7.672;2023-07-29T03:26:01;20.90;;;19.70;;
6121;SDS011;3091;51.506;7.672;2023-07-29T03:28:32;21.93;;;20.53;;
6121;SDS011;3091;51.506;7.672;2023-07-29T03:30:58;21.60;;;20.40;;
6121;SDS011;3091;51.506;7.672;2023-07-29T03:33:25;21.40;;;20.20;;
6121;SDS011;3091;51.506;7.672;2023-07-29T03:35:51;21.50;;;20.30;;
6121;SDS011;3091;51.506;7.672;2023-07-29T03:38:18;21.47;;;20.17;;
6121;SDS011;3091;51.506;7.672;2023-07-29T03:40:44;21.60;;;20.30;;
6121;SDS011;3091;51.506;7.672;2023-07-29T03:43:10;21.90;;;20.60;;
6121;SDS011;3091;51.506;7.672;2023-07-29T03:45:36;22.20;;;20.80;;
6121;SDS011;3091;51.506;7.672;2023-07-29T03:48:03;22.13;;;20.83;;
6121;SDS011;3091;51.506;7.672;2023-07-29T03:50:30;21.70;;;20.40;;
6121;SDS011;3091;51.506;7.672;2023-07-29T03:52:56;21.50;;;20.20;;
6121;SDS011;3091;51.506;7.672;2023-07-29T03:55:22;21.43;;;20.13;;
6121;SDS011;3091;51.506;7.672;2023-07-29T03:57:48;21.77;;;20.47;;
6121;SDS011;3091;51.506;7.672;2023-07-29T04:00:14;22.43;;;21.03;;
6121;SDS011;3091;51.506;7.672;2023-07-29T04:02:43;21.43;;;20.13;;
6121;SDS011;3091;51.506;7.672;2023-07-29T04:05:10;21.10;;;19.90;;
6121;SDS011;3091;51.506;7.672;2023-07-29T04:07:36;21.23;;;20.03;;
6121;SDS011;3091;51.506;7.672;2023-07-29T04:10:02;21.20;;;20.00;;
6121;SDS011;3091;51.506;7.672;2023-07-29T04:12:29;24.00;;;22.70;;
6121;SDS011;3091;51.506;7.672;2023-07-29T04:14:55;21.30;;;20.10;;
6121;SDS011;3091;51.506;7.672;2023-07-29T04:17:21;22.00;;;20.70;;
6121;SDS011;3091;51.506;7.672;2023-07-29T04:19:47;21.80;;;20.60;;
6121;SDS011;3091;51.506;7.672;2023-07-29T04:22:13;21.57;;;20.37;;
6121;SDS011;3091;51.506;7.672;2023-07-29T04:24:40;21.70;;;20.50;;
6121;SDS011;3091;51.506;7.672;2023-07-29T04:27:06;21.23;;;20.00;;
6121;SDS011;3091;51.506;7.672;2023-07-29T04:29:32;21.43;;;20.23;;
6121;SDS011;3091;51.506;7.672;2023-07-29T04:31:58;20.90;;;19.70;;
6121;SDS011;3091;51.506;7.672;2023-07-29T04:34:24;22.70;;;21.40;;
6121;SDS011;3091;51.506;7.672;2023-07-29T04:36:50;21.10;;;19.90;;
6121;SDS011;3091;51.506;7.672;2023-07-29T04:39:16;21.43;;;20.23;;
6121;SDS011;3091;51.506;7.672;2023-07-29T04:41:43;21.90;;;20.60;;
6121;SDS011;3091;51.506;7.672;2023-07-29T04:44:09;21.40;;;20.20;;
6121;SDS011;3091;51.506;7.672;2023-07-29T04:46:36;21.23;;;20.03;;
6121;SDS011;3091;51.506;7.672;2023-07-29T04:49:02;22.30;;;21.00;;
6121;SDS011;3091;51.506;7.672;2023-07-29T04:51:30;22.20;;;21.00;;
6121;SDS011;3091;51.506;7.672;2023-07-29T04:53:57;22.87;;;21.67;;
6121;SDS011;3091;51.506;7.672;2023-07-29T04:56:25;22.17;;;20.97;;
6121;SDS011;3091;51.506;7.672;2023-07-29T04:58:51;23.17;;;21.87;;
6121;SDS011;3091;51.506;7.672;2023-07-29T05:01:18;21.50;;;20.30;;
6121;SDS011;3091;51.506;7.672;2023-07-29T05:03:44;22.00;;;20.80;;
6121;SDS011;3091;51.506;7.672;2023-07-29T05:06:10;22.20;;;20.90;;
6121;SDS011;3091;51.506;7.672;2023-07-29T05:08:36;22.63;;;21.33;;
6121;SDS011;3091;51.506;7.672;2023-07-29T05:11:02;23.10;;;21.80;;
6121;SDS011;3091;51.506;7.672;2023-07-29T05:13:28;23.40;;;22.00;;
6121;SDS011;3091;51.506;7.672;2023-07-29T05:15:54;23.83;;;22.43;;
6121;SDS011;3091;51.506;7.672;2023-07-29T05:18:21;23.73;;;22.33;;
6121;SDS011;3091;51.506;7.672;2023-07-29T05:20:47;23.30;;;21.90;;
6121;SDS011;3091;51.506;7.672;2023-07-29T05:23:13;25.23;;;23.63;;
6121;SDS011;3091;51.506;7.672;2023-07-29T05:25:42;24.90;;;23.40;;
6121;SDS011;3091;51.506;7.672;2023-07-29T05:28:08;23.00;;;21.70;;
6121;SDS011;3091;51.506;7.672;2023-07-29T05:30:34;22.60;;;21.30;;
6121;SDS011;3091;51.506;7.672;2023-07-29T05:33:02;22.97;;;21.67;;
6121;SDS011;3091;51.506;7.672;2023-07-29T05:35:29;20.03;;;18.93;;
6121;SDS011;3091;51.506;7.672;2023-07-29T05:37:55;19.57;;;18.57;;
6121;SDS011;3091;51.506;7.672;2023-07-29T05:40:21;19.83;;;18.83;;
6121;SDS011;3091;51.506;7.672;2023-07-29T05:42:47;21.40;;;20.10;;
6121;SDS011;3091;51.506;7.672;2023-07-29T05:45:13;18.43;;;17.43;;
6121;SDS011;3091;51.506;7.672;2023-07-29T05:47:39;18.33;;;17.33;;
6121;SDS011;3091;51.506;7.672;2023-07-29T05:50:05;17.67;;;16.77;;
6121;SDS011;3091;51.506;7.672;2023-07-29T05:52:32;18.17;;;17.27;;
6121;SDS011;3091;51.506;7.672;2023-07-29T05:54:58;18.50;;;17.50;;
6121;SDS011;3091;51.506;7.672;2023-07-29T05:57:24;17.27;;;16.37;;
6121;SDS011;3091;51.506;7.672;2023-07-29T05:59:50;17.30;;;16.40;;
6121;SDS011;3091;51.506;7.672;2023-07-29T06:02:16;19.33;;;18.33;;
6121;SDS011;3091;51.506;7.672;2023-07-29T06:04:42;19.30;;;18.30;;
6121;SDS011;3091;51.506;7.672;2023-07-29T06:07:08;20.80;;;19.70;;
6121;SDS011;3091;51.506;7.672;2023-07-29T06:09:34;19.13;;;18.13;;
6121;SDS011;3091;51.506;7.672;2023-07-29T06:12:00;21.77;;;19.80;;
6121;SDS011;3091;51.506;7.672;2023-07-29T06:14:26;19.20;;;18.20;;
6121;SDS011;3091;51.506;7.672;2023-07-29T06:16:55;21.63;;;20.53;;
6121;SDS011;3091;51.506;7.672;2023-07-29T06:19:21;18.33;;;17.33;;
6121;SDS011;3091;51.506;7.672;2023-07-29T06:21:47;19.20;;;18.40;;
6121;SDS011;3091;51.506;7.672;2023-07-29T06:24:14;17.10;;;16.40;;
6121;SDS011;3091;51.506;7.672;2023-07-29T06:29:30;19.47;;;18.60;;
6121;SDS011;3091;51.506;7.672;2023-07-29T06:31:58;18.73;;;17.73;;
6121;SDS011;3091;51.506;7.672;2023-07-29T06:34:24;18.70;;;17.70;;
6121;SDS011;3091;51.506;7.672;2023-07-29T06:36:52;18.23;;;17.43;;
6121;SDS011;3091;51.506;7.672;2023-07-29T06:39:18;16.70;;;16.00;;
6121;SDS011;3091;51.506;7.672;2023-07-29T06:41:44;17.63;;;16.83;;
6121;SDS011;3091;51.506;7.672;2023-07-29T06:44:10;17.50;;;16.70;;
6121;SDS011;3091;51.506;7.672;2023-07-29T06:46:36;16.87;;;15.97;;
6121;SDS011;3091;51.506;7.672;2023-07-29T06:49:02;19.57;;;18.40;;
6121;SDS011;3091;51.506;7.672;2023-07-29T06:51:32;15.93;;;15.33;;
6121;SDS011;3091;51.506;7.672;2023-07-29T06:54:00;18.70;;;17.47;;
6121;SDS011;3091;51.506;7.672;2023-07-29T06:56:26;16.17;;;15.57;;
6121;SDS011;3091;51.506;7.672;2023-07-29T06:58:52;17.87;;;17.10;;
6121;SDS011;3091;51.506;7.672;2023-07-29T07:01:18;19.50;;;18.60;;
6121;SDS011;3091;51.506;7.672;2023-07-29T07:03:46;19.60;;;18.50;;
6121;SDS011;3091;51.506;7.672;2023-07-29T07:06:12;18.13;;;17.33;;
6121;SDS011;3091;51.506;7.672;2023-07-29T07:08:38;19.00;;;18.10;;
6121;SDS011;3091;51.506;7.672;2023-07-29T07:11:06;18.10;;;17.20;;
6121;SDS011;3091;51.506;7.672;2023-07-29T07:13:32;17.03;;;16.33;;
6121;SDS011;3091;51.506;7.672;2023-07-29T07:15:58;15.80;;;15.20;;
6121;SDS011;3091;51.506;7.672;2023-07-29T07:18:24;14.57;;;14.07;;
6121;SDS011;3091;51.506;7.672;2023-07-29T07:20:51;15.00;;;14.47;;
6121;SDS011;3091;51.506;7.672;2023-07-29T07:23:18;16.10;;;15.50;;
6121;SDS011;3091;51.506;7.672;2023-07-29T07:25:44;15.00;;;14.50;;
6121;SDS011;3091;51.506;7.672;2023-07-29T07:28:10;15.53;;;14.93;;
6121;SDS011;3091;51.506;7.672;2023-07-29T07:30:39;14.40;;;13.90;;
6121;SDS011;3091;51.506;7.672;2023-07-29T07:33:26;15.33;;;14.73;;
6121;SDS011;3091;51.506;7.672;2023-07-29T07:35:52;13.33;;;12.93;;
6121;SDS011;3091;51.506;7.672;2023-07-29T07:38:18;13.00;;;12.60;;
6121;SDS011;3091;51.506;7.672;2023-07-29T07:40:54;13.30;;;12.90;;
6121;SDS011;3091;51.506;7.672;2023-07-29T07:43:21;12.90;;;12.50;;
6121;SDS011;3091;51.506;7.672;2023-07-29T07:45:47;13.83;;;13.43;;
6121;SDS011;3091;51.506;7.672;2023-07-29T07:48:13;13.67;;;13.20;;
6121;SDS011;3091;51.506;7.672;2023-07-29T07:50:41;13.10;;;12.70;;
6121;SDS011;3091;51.506;7.672;2023-07-29T07:53:07;13.40;;;13.00;;
6121;SDS011;3091;51.506;7.672;2023-07-29T07:55:33;13.27;;;12.87;;
6121;SDS011;3091;51.506;7.672;2023-07-29T07:57:59;12.53;;;12.13;;
6121;SDS011;3091;51.506;7.672;2023-07-29T08:00:25;12.77;;;12.37;;
6121;SDS011;3091;51.506;7.672;2023-07-29T08:02:54;12.87;;;12.47;;
6121;SDS011;3091;51.506;7.672;2023-07-29T08:05:20;13.00;;;12.60;;
6121;SDS011;3091;51.506;7.672;2023-07-29T08:07:46;12.93;;;12.53;;
6121;SDS011;3091;51.506;7.672;2023-07-29T08:10:12;12.43;;;12.03;;
6121;SDS011;3091;51.506;7.672;2023-07-29T08:12:38;12.10;;;11.70;;
6121;SDS011;3091;51.506;7.672;2023-07-29T08:15:04;12.40;;;12.00;;
6121;SDS011;3091;51.506;7.672;2023-07-29T08:17:30;11.97;;;11.57;;
6121;SDS011;3091;51.506;7.672;2023-07-29T08:19:56;11.90;;;11.50;;
6121;SDS011;3091;51.506;7.672;2023-07-29T08:22:22;12.27;;;11.87;;
6121;SDS011;3091;51.506;7.672;2023-07-29T08:24:48;11.87;;;11.47;;
6121;SDS011;3091;51.506;7.672;2023-07-29T08:27:14;12.00;;;11.60;;
6121;SDS011;3091;51.506;7.672;2023-07-29T08:29:40;12.70;;;12.30;;
6121;SDS011;3091;51.506;7.672;2023-07-29T08:32:06;12.23;;;11.83;;
6121;SDS011;3091;51.506;7.672;2023-07-29T08:34:32;12.07;;;11.67;;
6121;SDS011;3091;51.506;7.672;2023-07-29T08:36:58;12.67;;;12.27;;
6121;SDS011;3091;51.506;7.672;2023-07-29T08:39:25;12.83;;;12.43;;
6121;SDS011;3091;51.506;7.672;2023-07-29T08:41:57;13.27;;;12.77;;
6121;SDS011;3091;51.506;7.672;2023-07-29T08:44:34;12.60;;;12.20;;
6121;SDS011;3091;51.506;7.672;2023-07-29T08:47:01;12.30;;;11.90;;
6121;SDS011;3091;51.506;7.672;2023-07-29T08:49:27;12.37;;;11.97;;
6121;SDS011;3091;51.506;7.672;2023-07-29T08:51:54;11.83;;;11.43;;
6121;SDS011;3091;51.506;7.672;2023-07-29T08:54:20;11.90;;;11.50;;
6121;SDS011;3091;51.506;7.672;2023-07-29T08:56:46;12.07;;;11.67;;
6121;SDS011;3091;51.506;7.672;2023-07-29T08:59:12;12.00;;;11.60;;
6121;SDS011;3091;51.506;7.672;2023-07-29T09:01:39;13.33;;;12.77;;
6121;SDS011;3091;51.506;7.672;2023-07-29T09:04:05;12.80;;;12.30;;
6121;SDS011;3091;51.506;7.672;2023-07-29T09:06:31;11.93;;;11.53;;
6121;SDS011;3091;51.506;7.672;2023-07-29T09:09:00;12.20;;;11.80;;
6121;SDS011;3091;51.506;7.672;2023-07-29T09:11:26;12.50;;;12.10;;
6121;SDS011;3091;51.506;7.672;2023-07-29T09:13:52;13.87;;;13.37;;
6121;SDS011;3091;51.506;7.672;2023-07-29T09:16:22;13.90;;;13.40;;
6121;SDS011;3091;51.506;7.672;2023-07-29T09:18:50;13.83;;;13.33;;
6121;SDS011;3091;51.506;7.672;2023-07-29T09:21:17;13.80;;;13.30;;
6121;SDS011;3091;51.506;7.672;2023-07-29T09:23:43;13.83;;;13.33;;
6121;SDS011;3091;51.506;7.672;2023-07-29T09:26:10;13.63;;;13.13;;
6121;SDS011;3091;51.506;7.672;2023-07-29T09:28:37;14.20;;;13.70;;
6121;SDS011;3091;51.506;7.672;2023-07-29T09:31:03;13.80;;;13.30;;
6121;SDS011;3091;51.506;7.672;2023-07-29T09:33:34;14.10;;;13.60;;
6121;SDS011;3091;51.506;7.672;2023-07-29T09:36:02;14.37;;;13.87;;
6121;SDS011;3091;51.506;7.672;2023-07-29T09:38:28;14.27;;;13.70;;
6121;SDS011;3091;51.506;7.672;2023-07-29T09:40:55;14.00;;;13.50;;
6121;SDS011;3091;51.506;7.672;2023-07-29T09:43:24;14.13;;;13.63;;
6121;SDS011;3091;51.506;7.672;2023-07-29T09:45:51;14.10;;;13.60;;
6121;SDS011;3091;51.506;7.672;2023-07-29T09:48:19;14.20;;;13.70;;
6121;SDS011;3091;51.506;7.672;2023-07-29T09:50:47;14.10;;;13.60;;
6121;SDS011;3091;51.506;7.672;2023-07-29T09:53:14;14.30;;;13.80;;
6121;SDS011;3091;51.506;7.672;2023-07-29T09:55:40;14.07;;;13.57;;
6121;SDS011;3091;51.506;7.672;2023-07-29T09:58:11;14.50;;;14.00;;
6121;SDS011;3091;51.506;7.672;2023-07-29T10:00:37;14.27;;;13.77;;
6121;SDS011;3091;51.506;7.672;2023-07-29T10:03:05;14.20;;;13.70;;
6121;SDS011;3091;51.506;7.672;2023-07-29T10:05:32;14.13;;;13.63;;
6121;SDS011;3091;51.506;7.672;2023-07-29T10:08:00;14.47;;;13.97;;
6121;SDS011;3091;51.506;7.672;2023-07-29T10:10:27;14.10;;;13.60;;
6121;SDS011;3091;51.506;7.672;2023-07-29T10:12:56;14.00;;;13.57;;
6121;SDS011;3091;51.506;7.672;2023-07-29T10:15:22;15.23;;;14.40;;
6121;SDS011;3091;51.506;7.672;2023-07-29T10:17:48;14.50;;;14.00;;
6121;SDS011;3091;51.506;7.672;2023-07-29T10:20:15;15.80;;;15.30;;
6121;SDS011;3091;51.506;7.672;2023-07-29T10:22:42;14.90;;;14.40;;
6121;SDS011;3091;51.506;7.672;2023-07-29T10:25:14;15.10;;;14.60;;
6121;SDS011;3091;51.506;7.672;2023-07-29T10:27:48;13.87;;;13.47;;
6121;SDS011;3091;51.506;7.672;2023-07-29T10:30:15;13.87;;;13.43;;
6121;SDS011;3091;51.506;7.672;2023-07-29T10:32:41;14.50;;;14.00;;
6121;SDS011;3091;51.506;7.672;2023-07-29T10:35:09;14.30;;;13.80;;
6121;SDS011;3091;51.506;7.672;2023-07-29T10:37:35;14.60;;;14.10;;
6121;SDS011;3091;51.506;7.672;2023-07-29T10:40:05;14.40;;;13.90;;
6121;SDS011;3091;51.506;7.672;2023-07-29T10:42:31;14.60;;;14.10;;
6121;SDS011;3091;51.506;7.672;2023-07-29T10:44:57;14.57;;;14.07;;
6121;SDS011;3091;51.506;7.672;2023-07-29T10:47:24;14.57;;;14.07;;
6121;SDS011;3091;51.506;7.672;2023-07-29T10:49:52;14.50;;;14.00;;
6121;SDS011;3091;51.506;7.672;2023-07-29T10:52:40;14.33;;;13.83;;
6121;SDS011;3091;51.506;7.672;2023-07-29T10:55:22;14.43;;;13.93;;
6121;SDS011;3091;51.506;7.672;2023-07-29T10:57:49;14.70;;;14.20;;
6121;SDS011;3091;51.506;7.672;2023-07-29T11:00:15;14.97;;;14.47;;
6121;SDS011;3091;51.506;7.672;2023-07-29T11:02:41;15.10;;;14.50;;
6121;SDS011;3091;51.506;7.672;2023-07-29T11:05:08;15.60;;;15.10;;
6121;SDS011;3091;51.506;7.672;2023-07-29T11:07:44;12.17;;;11.77;;
6121;SDS011;3091;51.506;7.672;2023-07-29T11:10:11;13.17;;;12.77;;
6121;SDS011;3091;51.506;7.672;2023-07-29T11:12:38;13.50;;;13.00;;
6121;SDS011;3091;51.506;7.672;2023-07-29T11:20:08;12.83;;;12.43;;
6121;SDS011;3091;51.506;7.672;2023-07-29T11:22:35;13.30;;;12.80;;
6121;SDS011;3091;51.506;7.672;2023-07-29T11:25:02;12.97;;;12.57;;
6121;SDS011;3091;51.506;7.672;2023-07-29T11:27:28;12.70;;;12.30;;
6121;SDS011;3091;51.506;7.672;2023-07-29T11:29:57;12.67;;;12.27;;
6121;SDS011;3091;51.506;7.672;2023-07-29T11:32:23;12.80;;;12.40;;
6121;SDS011;3091;51.506;7.672;2023-07-29T11:34:50;13.33;;;12.93;;
6121;SDS011;3091;51.506;7.672;2023-07-29T11:37:16;13.20;;;12.70;;
6121;SDS011;3091;51.506;7.672;2023-07-29T11:39:43;12.30;;;11.90;;
6121;SDS011;3091;51.506;7.672;2023-07-29T11:42:19;12.27;;;11.87;;
6121;SDS011;3091;51.506;7.672;2023-07-29T11:44:45;12.40;;;12.00;;
6121;SDS011;3091;51.506;7.672;2023-07-29T11:47:12;12.40;;;12.00;;
6121;SDS011;3091;51.506;7.672;2023-07-29T11:49:39;12.23;;;11.83;;
6121;SDS011;3091;51.506;7.672;2023-07-29T11:52:06;12.73;;;12.33;;
6121;SDS011;3091;51.506;7.672;2023-07-29T11:54:33;12.47;;;12.07;;
6121;SDS011;3091;51.506;7.672;2023-07-29T11:57:00;12.47;;;12.07;;
6121;SDS011;3091;51.506;7.672;2023-07-29T11:59:29;12.23;;;11.83;;
6121;SDS011;3091;51.506;7.672;2023-07-29T12:01:55;12.90;;;12.50;;
6121;SDS011;3091;51.506;7.672;2023-07-29T12:04:21;12.47;;;12.07;;
6121;SDS011;3091;51.506;7.672;2023-07-29T12:06:47;12.30;;;11.90;;
6121;SDS011;3091;51.506;7.672;2023-07-29T12:09:13;12.10;;;11.70;;
6121;SDS011;3091;51.506;7.672;2023-07-29T12:11:39;12.47;;;12.07;;
6121;SDS011;3091;51.506;7.672;2023-07-29T12:14:08;12.80;;;12.40;;
6121;SDS011;3091;51.506;7.672;2023-07-29T12:16:42;12.23;;;11.83;;
6121;SDS011;3091;51.506;7.672;2023-07-29T12:19:13;12.90;;;12.40;;
6121;SDS011;3091;51.506;7.672;2023-07-29T12:21:40;12.13;;;11.73;;
6121;SDS011;3091;51.506;7.672;2023-07-29T12:24:06;12.20;;;11.80;;
6121;SDS011;3091;51.506;7.672;2023-07-29T12:26:32;12.70;;;12.30;;
6121;SDS011;3091;51.506;7.672;2023-07-29T12:28:59;12.40;;;12.00;;
6121;SDS011;3091;51.506;7.672;2023-07-29T12:31:31;12.83;;;12.40;;
6121;SDS011;3091;51.506;7.672;2023-07-29T12:33:58;12.57;;;12.17;;
6121;SDS011;3091;51.506;7.672;2023-07-29T12:36:29;13.07;;;12.67;;
6121;SDS011;3091;51.506;7.672;2023-07-29T12:39:05;13.17;;;12.67;;
6121;SDS011;3091;51.506;7.672;2023-07-29T12:41:31;13.50;;;13.00;;
6121;SDS011;3091;51.506;7.672;2023-07-29T12:43:57;12.70;;;12.30;;
6121;SDS011;3091;51.506;7.672;2023-07-29T12:46:28;12.70;;;12.30;;
6121;SDS011;3091;51.506;7.672;2023-07-29T12:48:54;12.70;;;12.27;;
6121;SDS011;3091;51.506;7.672;2023-07-29T12:51:23;12.60;;;12.20;;
6121;SDS011;3091;51.506;7.672;2023-07-29T12:53:49;13.00;;;12.60;;
6121;SDS011;3091;51.506;7.672;2023-07-29T12:56:15;12.60;;;12.20;;
6121;SDS011;3091;51.506;7.672;2023-07-29T12:58:41;12.67;;;12.27;;
6121;SDS011;3091;51.506;7.672;2023-07-29T13:01:07;12.37;;;11.97;;
6121;SDS011;3091;51.506;7.672;2023-07-29T13:03:34;12.17;;;11.77;;
6121;SDS011;3091;51.506;7.672;2023-07-29T13:06:00;12.90;;;12.50;;
6121;SDS011;3091;51.506;7.672;2023-07-29T13:08:26;13.10;;;12.60;;
6121;SDS011;3091;51.506;7.672;2023-07-29T13:10:52;12.97;;;12.57;;
6121;SDS011;3091;51.506;7.672;2023-07-29T13:13:18;13.30;;;12.90;;
6121;SDS011;3091;51.506;7.672;2023-07-29T13:15:45;12.67;;;12.27;;
6121;SDS011;3091;51.506;7.672;2023-07-29T13:18:11;13.43;;;12.93;;
6121;SDS011;3091;51.506;7.672;2023-07-29T13:20:37;13.00;;;12.60;;
6121;SDS011;3091;51.506;7.672;2023-07-29T13:23:03;12.70;;;12.30;;
6121;SDS011;3091;51.506;7.672;2023-07-29T13:25:29;12.63;;;12.23;;
6121;SDS011;3091;51.506;7.672;2023-07-29T13:27:55;13.00;;;12.60;;
6121;SDS011;3091;51.506;7.672;2023-07-29T13:30:24;12.57;;;12.17;;
6121;SDS011;3091;51.506;7.672;2023-07-29T13:32:50;12.77;;;12.37;;
6121;SDS011;3091;51.506;7.672;2023-07-29T13:35:16;13.20;;;12.80;;
6121;SDS011;3091;51.506;7.672;2023-07-29T13:37:42;12.97;;;12.57;;
6121;SDS011;3091;51.506;7.672;2023-07-29T13:40:08;13.20;;;12.70;;
6121;SDS011;3091;51.506;7.672;2023-07-29T13:42:34;12.57;;;12.17;;
6121;SDS011;3091;51.506;7.672;2023-07-29T13:45:00;12.60;;;12.20;;
6121;SDS011;3091;51.506;7.672;2023-07-29T13:47:26;13.13;;;12.63;;
6121;SDS011;3091;51.506;7.672;2023-07-29T13:49:52;12.80;;;12.40;;
6121;SDS011;3091;51.506;7.672;2023-07-29T13:52:18;13.63;;;13.13;;
6121;SDS011;3091;51.506;7.672;2023-07-29T13:54:51;12.60;;;12.20;;
6121;SDS011;3091;51.506;7.672;2023-07-29T13:57:17;13.67;;;13.17;;
6121;SDS011;3091;51.506;7.672;2023-07-29T13:59:43;12.57;;;12.17;;
6121;SDS011;3091;51.506;7.672;2023-07-29T14:02:09;12.50;;;12.10;;
6121;SDS011;3091;51.506;7.672;2023-07-29T14:04:35;12.37;;;11.97;;
6121;SDS011;3091;51.506;7.672;2023-07-29T14:07:01;12.50;;;12.00;;
6121;SDS011;3091;51.506;7.672;2023-07-29T14:09:27;13.77;;;13.20;;
6121;SDS011;3091;51.506;7.672;2023-07-29T14:11:54;12.70;;;12.20;;
6121;SDS011;3091;51.506;7.672;2023-07-29T14:14:20;12.87;;;12.37;;
6121;SDS011;3091;51.506;7.672;2023-07-29T14:16:46;12.27;;;11.87;;
6121;SDS011;3091;51.506;7.672;2023-07-29T14:19:12;13.00;;;12.50;;
6121;SDS011;3091;51.506;7.672;2023-07-29T14:21:38;12.80;;;12.40;;
6121;SDS011;3091;51.506;7.672;2023-07-29T14:24:05;13.07;;;12.60;;
6121;SDS011;3091;51.506;7.672;2023-07-29T14:26:31;12.70;;;12.30;;
6121;SDS011;3091;51.506;7.672;2023-07-29T14:28:57;12.40;;;12.00;;
6121;SDS011;3091;51.506;7.672;2023-07-29T14:31:23;12.57;;;12.17;;
6121;SDS011;3091;51.506;7.672;2023-07-29T14:33:49;12.43;;;12.03;;
6121;SDS011;3091;51.506;7.672;2023-07-29T14:36:15;12.63;;;12.23;;
6121;SDS011;3091;51.506;7.672;2023-07-29T14:38:42;13.00;;;12.60;;
6121;SDS011;3091;51.506;7.672;2023-07-29T14:41:08;13.80;;;13.30;;
6121;SDS011;3091;51.506;7.672;2023-07-29T14:43:34;14.07;;;13.57;;
6121;SDS011;3091;51.506;7.672;2023-07-29T14:46:00;15.00;;;14.50;;
6121;SDS011;3091;51.506;7.672;2023-07-29T14:48:27;26.27;;;25.07;;
6121;SDS011;3091;51.506;7.672;2023-07-29T14:50:53;36.87;;;35.07;;
6121;SDS011;3091;51.506;7.672;2023-07-29T14:53:19;48.87;;;46.37;;
6121;SDS011;3091;51.506;7.672;2023-07-29T14:55:45;63.33;;;60.23;;
6121;SDS011;3091;51.506;7.672;2023-07-29T14:58:11;93.97;;;89.97;;
6121;SDS011;3091;51.506;7.672;2023-07-29T15:00:37;104.37;;;100.00;;
6121;SDS011;3091;51.506;7.672;2023-07-29T15:03:03;96.80;;;92.60;;